createdAt,value
2017-11-26T00:00:33.311Z,-1.10
2017-11-26T00:03:01.284Z,-1.10
2017-11-26T00:05:29.254Z,-1.10
2017-11-26T00:07:57.252Z,-1.10
2017-11-26T00:10:25.217Z,-1.00
2017-11-26T00:12:52.650Z,-0.90
2017-11-26T00:15:20.091Z,-0.90
2017-11-26T00:17:47.508Z,-0.90
2017-11-26T00:20:15.473Z,-0.80
2017-11-26T00:22:43.436Z,-0.50
2017-11-26T00:25:10.877Z,-0.40
2017-11-26T00:27:38.296Z,-0.30
2017-11-26T00:30:05.726Z,-0.30
2017-11-26T00:32:34.477Z,-0.30
2017-11-26T00:35:01.921Z,-0.30
2017-11-26T00:37:29.341Z,-0.20
2017-11-26T00:39:57.212Z,-0.10
2017-11-26T00:42:24.621Z,0.00
2017-11-26T00:44:52.045Z,0.10
2017-11-26T00:47:19.462Z,0.10
2017-11-26T00:49:47.647Z,0.20
2017-11-26T00:52:15.068Z,0.20
2017-11-26T00:54:42.507Z,0.20
2017-11-26T00:57:09.918Z,0.30
2017-11-26T00:59:38.109Z,0.30
2017-11-26T01:02:05.948Z,0.30
2017-11-26T01:04:34.655Z,0.40
2017-11-26T01:07:02.073Z,0.40
2017-11-26T01:09:30.349Z,0.50
2017-11-26T01:11:57.771Z,0.50
2017-11-26T01:14:25.201Z,0.60
2017-11-26T01:16:53.043Z,0.60
2017-11-26T01:19:21.231Z,0.60
2017-11-26T01:21:49.408Z,0.60
2017-11-26T01:24:16.827Z,0.60
2017-11-26T01:26:44.257Z,0.60
2017-11-26T01:29:11.678Z,0.60
2017-11-26T01:31:39.728Z,0.60
2017-11-26T01:34:07.140Z,0.70
2017-11-26T01:36:34.564Z,0.70
2017-11-26T01:39:02.666Z,0.80
2017-11-26T01:41:30.073Z,0.80
2017-11-26T01:43:58.252Z,1.00
2017-11-26T01:46:26.533Z,1.00
2017-11-26T01:48:53.955Z,1.00
2017-11-26T01:51:21.405Z,1.00
2017-11-26T01:53:48.840Z,1.10
2017-11-26T01:56:16.255Z,1.10
2017-11-26T01:58:44.435Z,1.10
2017-11-26T02:01:12.631Z,1.20
2017-11-26T02:06:34.688Z,1.20
2017-11-26T02:09:02.084Z,1.30
2017-11-26T02:11:29.504Z,1.30
2017-11-26T02:13:56.919Z,1.40
2017-11-26T02:16:25.045Z,1.30
2017-11-26T02:18:52.444Z,1.40
2017-11-26T02:21:19.867Z,1.40
2017-11-26T02:23:47.284Z,1.50
2017-11-26T02:26:15.224Z,1.60
2017-11-26T02:28:43.159Z,1.70
2017-11-26T02:31:22.414Z,1.60
2017-11-26T02:33:56.412Z,1.70
2017-11-26T02:36:23.820Z,1.70
2017-11-26T02:38:51.441Z,1.70
2017-11-26T02:41:18.854Z,1.80
2017-11-26T02:43:46.270Z,1.80
2017-11-26T02:46:13.695Z,1.80
2017-11-26T02:48:41.100Z,1.80
2017-11-26T02:51:09.284Z,1.80
2017-11-26T02:53:36.702Z,1.80
2017-11-26T02:56:10.984Z,1.80
2017-11-26T02:58:38.404Z,1.80
2017-11-26T03:01:06.588Z,1.90
2017-11-26T03:03:34.000Z,1.80
2017-11-26T03:06:01.419Z,1.90
2017-11-26T03:08:28.837Z,1.90
2017-11-26T03:10:58.917Z,1.90
2017-11-26T03:13:26.303Z,1.90
2017-11-26T03:15:54.258Z,2.00
2017-11-26T03:18:21.676Z,2.00
2017-11-26T03:20:49.097Z,2.00
2017-11-26T03:23:17.287Z,2.10
2017-11-26T03:25:44.698Z,2.10
2017-11-26T03:28:12.113Z,2.00
2017-11-26T03:30:39.529Z,1.90
2017-11-26T03:33:06.955Z,1.70
2017-11-26T03:35:34.385Z,1.60
2017-11-26T03:38:02.333Z,1.50
2017-11-26T03:40:30.293Z,1.30
2017-11-26T03:42:58.484Z,1.10
2017-11-26T03:45:26.672Z,1.00
2017-11-26T03:47:54.311Z,1.00
2017-11-26T03:50:22.488Z,0.90
2017-11-26T03:52:49.905Z,0.90
2017-11-26T03:55:17.316Z,1.00
2017-11-26T03:57:44.733Z,1.00
2017-11-26T04:00:12.145Z,1.10
2017-11-26T04:02:39.611Z,1.10
2017-11-26T04:05:07.023Z,1.10
2017-11-26T04:07:35.200Z,1.00
2017-11-26T04:10:02.617Z,1.00
2017-11-26T04:12:30.037Z,1.10
2017-11-26T04:14:57.452Z,1.10
2017-11-26T04:17:25.640Z,1.10
2017-11-26T04:19:54.432Z,1.00
2017-11-26T04:22:21.855Z,1.00
2017-11-26T04:24:49.273Z,0.90
2017-11-26T04:27:16.692Z,0.90
2017-11-26T04:29:45.320Z,0.70
2017-11-26T04:32:14.625Z,0.70
2017-11-26T04:34:42.021Z,0.70
2017-11-26T04:37:10.214Z,0.60
2017-11-26T04:39:38.411Z,0.60
2017-11-26T04:42:07.292Z,0.60
2017-11-26T04:44:34.725Z,0.60
2017-11-26T04:47:09.569Z,0.70
2017-11-26T04:49:43.351Z,0.80
2017-11-26T04:52:10.781Z,0.90
2017-11-26T04:54:38.199Z,1.00
2017-11-26T04:57:08.077Z,1.10
2017-11-26T04:59:35.507Z,1.20
2017-11-26T05:02:03.157Z,1.30
2017-11-26T05:04:31.382Z,1.40
2017-11-26T05:06:58.775Z,1.50
2017-11-26T05:09:26.192Z,1.60
2017-11-26T05:11:54.373Z,1.60
2017-11-26T05:14:23.101Z,1.60
2017-11-26T05:16:50.525Z,1.60
2017-11-26T05:19:17.937Z,1.60
2017-11-26T05:21:45.878Z,1.60
2017-11-26T05:24:13.284Z,1.60
2017-11-26T05:26:41.472Z,1.40
2017-11-26T05:29:09.651Z,1.40
2017-11-26T05:31:37.837Z,1.30
2017-11-26T05:34:05.253Z,1.30
2017-11-26T05:36:32.679Z,1.20
2017-11-26T05:39:00.097Z,1.10
2017-11-26T05:41:27.517Z,1.00
2017-11-26T05:43:54.938Z,0.90
2017-11-26T05:46:22.348Z,0.80
2017-11-26T05:48:49.762Z,0.70
2017-11-26T05:51:17.180Z,0.50
2017-11-26T05:53:45.153Z,0.40
2017-11-26T05:56:12.565Z,0.30
2017-11-26T05:58:39.977Z,0.20
2017-11-26T06:01:07.397Z,0.10
2017-11-26T06:03:34.804Z,0.20
2017-11-26T06:06:02.229Z,0.30
2017-11-26T06:08:30.404Z,0.50
2017-11-26T06:10:58.502Z,0.50
2017-11-26T06:13:25.899Z,0.60
2017-11-26T06:15:53.308Z,0.70
2017-11-26T06:18:21.258Z,0.70
2017-11-26T06:20:48.684Z,0.80
2017-11-26T06:23:16.505Z,0.80
2017-11-26T06:25:43.904Z,0.90
2017-11-26T06:28:11.320Z,0.80
2017-11-26T06:30:38.741Z,0.80
2017-11-26T06:33:06.927Z,0.80
2017-11-26T06:35:34.349Z,0.70
2017-11-26T06:38:02.390Z,0.70
2017-11-26T06:40:29.796Z,0.80
2017-11-26T06:42:58.517Z,0.80
2017-11-26T06:45:25.930Z,0.80
2017-11-26T06:47:53.589Z,0.80
2017-11-26T06:50:21.005Z,0.70
2017-11-26T06:52:48.436Z,0.60
2017-11-26T06:55:15.855Z,0.50
2017-11-26T06:57:43.284Z,0.40
2017-11-26T07:00:11.902Z,0.50
2017-11-26T07:02:39.324Z,0.50
2017-11-26T07:05:06.759Z,0.50
2017-11-26T07:07:34.173Z,0.50
2017-11-26T07:10:26.170Z,0.50
2017-11-26T07:12:53.656Z,0.50
2017-11-26T07:15:21.062Z,0.60
2017-11-26T07:17:48.549Z,0.70
2017-11-26T07:20:15.946Z,0.80
2017-11-26T07:22:44.156Z,1.10
2017-11-26T07:25:11.971Z,1.10
2017-11-26T07:27:39.812Z,1.30
2017-11-26T07:30:07.218Z,1.40
2017-11-26T07:32:37.204Z,1.60
2017-11-26T07:35:05.057Z,1.70
2017-11-26T07:37:33.100Z,1.90
2017-11-26T07:40:00.511Z,2.10
2017-11-26T07:42:28.694Z,2.20
2017-11-26T07:44:56.876Z,2.20
2017-11-26T07:47:24.296Z,2.10
2017-11-26T07:49:51.712Z,2.20
2017-11-26T07:52:27.573Z,2.20
2017-11-26T07:55:00.603Z,2.20
2017-11-26T07:57:34.074Z,2.20
2017-11-26T08:00:02.028Z,2.40
2017-11-26T08:02:29.991Z,2.40
2017-11-26T08:04:57.400Z,2.50
2017-11-26T08:07:25.601Z,2.70
2017-11-26T08:09:53.012Z,2.70
2017-11-26T08:12:20.432Z,2.70
2017-11-26T08:14:48.360Z,2.80
2017-11-26T08:17:16.560Z,2.80
2017-11-26T08:19:44.728Z,2.80
2017-11-26T08:22:12.141Z,2.80
2017-11-26T08:24:41.976Z,2.80
2017-11-26T08:27:25.154Z,3.00
2017-11-26T08:29:52.544Z,2.90
2017-11-26T08:32:19.973Z,3.00
2017-11-26T08:34:47.401Z,3.10
2017-11-26T08:37:14.821Z,3.10
2017-11-26T08:39:42.228Z,3.20
2017-11-26T08:42:09.653Z,3.20
2017-11-26T08:44:37.838Z,3.20
2017-11-26T08:47:05.249Z,3.20
2017-11-26T08:49:32.673Z,3.40
2017-11-26T08:52:00.089Z,3.50
2017-11-26T08:54:28.269Z,3.70
2017-11-26T08:56:56.460Z,3.80
2017-11-26T08:59:23.869Z,3.80
2017-11-26T09:01:51.288Z,4.00
2017-11-26T09:04:18.693Z,4.10
2017-11-26T09:09:47.937Z,4.40
2017-11-26T09:12:16.117Z,4.60
2017-11-26T09:14:43.936Z,4.60
2017-11-26T09:17:11.355Z,4.70
2017-11-26T09:19:38.768Z,4.70
2017-11-26T09:22:06.720Z,4.70
2017-11-26T09:24:34.141Z,4.60
2017-11-26T09:27:01.560Z,4.70
2017-11-26T09:29:29.736Z,4.80
2017-11-26T09:31:57.909Z,4.70
2017-11-26T09:34:26.141Z,4.90
2017-11-26T09:36:53.548Z,4.90
2017-11-26T09:39:21.734Z,5.00
2017-11-26T09:41:49.148Z,4.90
2017-11-26T09:44:16.562Z,5.00
2017-11-26T09:46:43.971Z,5.10
2017-11-26T09:49:11.396Z,5.00
2017-11-26T09:51:38.841Z,5.20
2017-11-26T09:54:06.255Z,5.20
2017-11-26T09:56:34.470Z,5.10
2017-11-26T09:59:01.888Z,5.10
2017-11-26T10:01:30.078Z,5.00
2017-11-26T10:03:57.513Z,5.00
2017-11-26T10:06:25.705Z,5.00
2017-11-26T10:08:53.137Z,5.00
2017-11-26T10:11:20.570Z,5.00
2017-11-26T10:13:48.002Z,5.00
2017-11-26T10:16:15.441Z,5.10
2017-11-26T10:18:42.868Z,5.00
2017-11-26T10:21:11.238Z,5.00
2017-11-26T10:23:38.654Z,5.00
2017-11-26T10:26:06.083Z,5.00
2017-11-26T10:28:34.253Z,5.00
2017-11-26T10:31:01.681Z,5.00
2017-11-26T10:33:29.103Z,5.00
2017-11-26T10:35:56.516Z,5.00
2017-11-26T10:38:24.711Z,4.70
2017-11-26T10:40:52.117Z,4.70
2017-11-26T10:43:19.542Z,4.80
2017-11-26T10:45:49.537Z,4.80
2017-11-26T10:48:16.944Z,4.80
2017-11-26T10:50:44.352Z,4.80
2017-11-26T10:53:11.769Z,4.70
2017-11-26T10:55:47.689Z,4.60
2017-11-26T10:58:15.636Z,4.70
2017-11-26T11:00:43.048Z,4.60
2017-11-26T11:03:10.469Z,4.70
2017-11-26T11:05:37.883Z,4.70
2017-11-26T11:08:06.068Z,4.70
2017-11-26T11:10:40.864Z,4.70
2017-11-26T11:13:08.305Z,4.80
2017-11-26T11:15:35.737Z,4.60
2017-11-26T11:18:03.145Z,4.50
2017-11-26T11:20:31.325Z,4.50
2017-11-26T11:22:59.509Z,4.40
2017-11-26T11:25:27.686Z,4.40
2017-11-26T11:27:55.112Z,4.40
2017-11-26T11:30:22.516Z,4.50
2017-11-26T11:32:53.547Z,4.50
2017-11-26T11:35:21.928Z,4.60
2017-11-26T11:37:49.454Z,4.60
2017-11-26T11:40:17.736Z,4.70
2017-11-26T11:42:45.998Z,4.80
2017-11-26T11:45:13.417Z,4.80
2017-11-26T11:47:40.837Z,5.00
2017-11-26T11:50:09.009Z,5.30
2017-11-26T11:52:37.830Z,5.30
2017-11-26T11:55:05.238Z,5.30
2017-11-26T11:57:32.659Z,5.40
2017-11-26T12:00:00.079Z,5.40
2017-11-26T12:02:27.502Z,5.40
2017-11-26T12:04:58.955Z,5.40
2017-11-26T12:07:26.376Z,5.50
2017-11-26T12:09:53.797Z,5.40
2017-11-26T12:12:21.207Z,5.30
2017-11-26T12:14:48.616Z,5.40
2017-11-26T12:17:16.961Z,5.50
2017-11-26T12:19:44.377Z,5.50
2017-11-26T12:22:11.792Z,5.40
2017-11-26T12:24:39.985Z,5.10
2017-11-26T12:27:07.388Z,5.10
2017-11-26T12:29:34.810Z,5.00
2017-11-26T12:32:02.800Z,4.80
2017-11-26T12:34:30.981Z,4.70
2017-11-26T12:36:58.406Z,4.60
2017-11-26T12:39:25.812Z,4.50
2017-11-26T12:41:53.221Z,4.50
2017-11-26T12:44:21.647Z,4.40
2017-11-26T12:46:49.877Z,4.30
2017-11-26T12:49:17.293Z,4.20
2017-11-26T12:51:45.477Z,4.10
2017-11-26T12:54:13.663Z,4.10
2017-11-26T12:56:41.072Z,4.00
2017-11-26T12:59:08.493Z,4.10
2017-11-26T13:01:35.913Z,4.10
2017-11-26T13:04:03.328Z,4.10
2017-11-26T13:06:30.751Z,4.00
2017-11-26T13:08:58.162Z,4.00
2017-11-26T13:11:25.621Z,3.90
2017-11-26T13:13:53.045Z,3.90
2017-11-26T13:16:20.457Z,3.90
2017-11-26T13:18:48.642Z,4.00
2017-11-26T13:21:16.053Z,4.00
2017-11-26T13:23:43.475Z,4.10
2017-11-26T13:26:10.880Z,4.20
2017-11-26T13:28:38.306Z,4.40
2017-11-26T13:31:05.721Z,4.50
2017-11-26T13:33:33.153Z,4.60
2017-11-26T13:36:00.561Z,4.70
2017-11-26T13:38:27.977Z,4.80
2017-11-26T13:40:56.705Z,5.10
2017-11-26T13:43:24.120Z,5.10
2017-11-26T13:45:52.293Z,5.30
2017-11-26T13:48:20.480Z,5.40
2017-11-26T13:50:48.665Z,5.60
2017-11-26T13:53:17.429Z,5.50
2017-11-26T13:55:45.617Z,5.60
2017-11-26T13:58:13.816Z,5.60
2017-11-26T14:00:41.225Z,5.60
2017-11-26T14:03:08.647Z,5.40
2017-11-26T14:05:37.047Z,5.30
2017-11-26T14:08:04.465Z,5.20
2017-11-26T14:10:36.573Z,5.20
2017-11-26T14:13:04.962Z,5.10
2017-11-26T14:15:32.382Z,5.00
2017-11-26T14:17:59.832Z,4.90
2017-11-26T14:20:27.259Z,4.90
2017-11-26T14:22:55.932Z,4.90
2017-11-26T14:25:23.638Z,4.90
2017-11-26T14:27:51.044Z,4.90
2017-11-26T14:30:19.252Z,4.70
2017-11-26T14:32:46.734Z,4.70
2017-11-26T14:35:14.737Z,4.60
2017-11-26T14:37:42.710Z,4.50
2017-11-26T14:40:10.136Z,4.30
2017-11-26T14:42:37.807Z,4.20
2017-11-26T14:45:05.613Z,4.10
2017-11-26T14:47:33.847Z,3.90
2017-11-26T14:50:01.667Z,3.90
2017-11-26T14:52:29.092Z,3.90
2017-11-26T14:54:56.517Z,3.80
2017-11-26T14:57:23.936Z,3.70
2017-11-26T14:59:51.384Z,3.60
2017-11-26T15:02:20.544Z,3.50
2017-11-26T15:04:47.976Z,3.50
2017-11-26T15:07:15.405Z,3.50
2017-11-26T15:09:43.580Z,3.30
2017-11-26T15:12:11.012Z,3.30
2017-11-26T15:14:39.283Z,3.20
2017-11-26T15:17:06.719Z,3.10
2017-11-26T15:19:34.141Z,3.10
2017-11-26T15:22:01.616Z,3.00
2017-11-26T15:24:29.056Z,3.00
2017-11-26T15:26:56.461Z,2.90
2017-11-26T15:29:23.930Z,2.80
2017-11-26T15:31:51.341Z,2.80
2017-11-26T15:34:18.766Z,2.60
2017-11-26T15:36:46.941Z,2.60
2017-11-26T15:39:15.662Z,2.60
2017-11-26T15:41:44.051Z,2.50
2017-11-26T15:44:11.479Z,2.50
2017-11-26T15:46:38.891Z,2.40
2017-11-26T15:49:06.340Z,2.40
2017-11-26T15:51:37.208Z,2.30
2017-11-26T15:54:05.381Z,2.10
2017-11-26T15:56:32.793Z,2.10
2017-11-26T15:59:00.222Z,2.10
2017-11-26T16:01:27.637Z,2.10
2017-11-26T16:03:55.829Z,2.00
2017-11-26T16:06:23.238Z,2.00
2017-11-26T16:08:50.670Z,2.00
2017-11-26T16:11:18.080Z,2.00
2017-11-26T16:13:46.269Z,2.00
2017-11-26T16:16:14.101Z,2.00
2017-11-26T16:18:41.843Z,2.10
2017-11-26T16:21:11.152Z,2.20
2017-11-26T16:23:38.576Z,2.20
2017-11-26T16:26:25.321Z,2.20
2017-11-26T16:28:53.577Z,2.20
2017-11-26T16:31:21.264Z,2.20
2017-11-26T16:33:48.660Z,2.20
2017-11-26T16:36:16.092Z,2.20
2017-11-26T16:38:44.297Z,2.30
2017-11-26T16:41:11.708Z,2.30
2017-11-26T16:43:39.137Z,2.30
2017-11-26T16:46:06.558Z,2.30
2017-11-26T16:48:34.736Z,2.10
2017-11-26T16:51:02.267Z,2.10
2017-11-26T16:53:30.516Z,2.00
2017-11-26T16:56:01.297Z,2.00
2017-11-26T16:58:29.486Z,1.90
2017-11-26T17:00:56.899Z,1.90
2017-11-26T17:03:24.317Z,1.90
2017-11-26T17:05:51.741Z,1.80
2017-11-26T17:08:21.933Z,1.80
2017-11-26T17:10:49.349Z,1.80
2017-11-26T17:13:16.768Z,1.90
2017-11-26T17:15:44.953Z,1.80
2017-11-26T17:18:12.361Z,1.80
2017-11-26T17:20:39.791Z,1.80
2017-11-26T17:23:07.203Z,1.80
2017-11-26T17:25:34.617Z,1.70
2017-11-26T17:28:02.584Z,1.70
2017-11-26T17:30:30.005Z,1.70
2017-11-26T17:32:58.178Z,1.70
2017-11-26T17:35:26.354Z,1.70
2017-11-26T17:37:53.766Z,1.70
2017-11-26T17:40:21.173Z,1.60
2017-11-26T17:42:48.731Z,1.50
2017-11-26T17:45:16.144Z,1.50
2017-11-26T17:47:43.557Z,1.40
2017-11-26T17:50:10.981Z,1.30
2017-11-26T17:52:39.170Z,1.30
2017-11-26T17:55:07.341Z,1.20
2017-11-26T17:57:35.524Z,1.10
2017-11-26T18:00:03.006Z,1.10
2017-11-26T18:02:30.425Z,1.10
2017-11-26T18:04:58.608Z,1.30
2017-11-26T18:07:28.747Z,1.30
2017-11-26T18:09:58.097Z,1.40
2017-11-26T18:12:39.639Z,1.50
2017-11-26T18:15:07.066Z,1.70
2017-11-26T18:17:35.256Z,1.80
2017-11-26T18:20:02.660Z,1.90
2017-11-26T18:22:30.082Z,2.00
2017-11-26T18:24:57.509Z,2.00
2017-11-26T18:27:31.853Z,2.10
2017-11-26T18:29:59.266Z,2.00
2017-11-26T18:32:26.670Z,2.10
2017-11-26T18:34:54.843Z,2.10
2017-11-26T18:37:22.597Z,2.10
2017-11-26T18:39:58.784Z,2.20
2017-11-26T18:42:26.198Z,2.10
2017-11-26T18:44:54.377Z,2.20
2017-11-26T18:47:21.805Z,2.20
2017-11-26T18:49:49.221Z,2.20
2017-11-26T18:52:16.631Z,2.30
2017-11-26T18:54:44.809Z,2.40
2017-11-26T18:57:12.991Z,2.40
2017-11-26T18:59:41.172Z,2.40
2017-11-26T19:02:08.587Z,2.40
2017-11-26T19:04:36.972Z,2.40
2017-11-26T19:07:04.672Z,2.40
2017-11-26T19:09:32.833Z,2.50
2017-11-26T19:12:01.020Z,2.60
2017-11-26T19:14:28.450Z,2.60
2017-11-26T19:17:10.370Z,2.60
2017-11-26T19:19:38.553Z,2.80
2017-11-26T19:22:06.550Z,2.80
2017-11-26T19:24:33.969Z,2.80
2017-11-26T19:27:01.388Z,2.90
2017-11-26T19:29:28.806Z,2.90
2017-11-26T19:31:56.211Z,2.90
2017-11-26T19:34:23.633Z,2.90
2017-11-26T19:36:51.040Z,2.90
2017-11-26T19:39:19.225Z,2.90
2017-11-26T19:41:47.865Z,2.90
2017-11-26T19:44:15.261Z,2.90
2017-11-26T19:46:43.443Z,2.90
2017-11-26T19:49:11.676Z,2.90
2017-11-26T19:51:39.088Z,2.90
2017-11-26T19:54:06.934Z,2.90
2017-11-26T19:56:35.139Z,2.90
2017-11-26T19:59:05.838Z,2.80
2017-11-26T20:01:34.022Z,2.90
2017-11-26T20:04:01.437Z,2.90
2017-11-26T20:06:32.584Z,2.90
2017-11-26T20:09:00.005Z,2.90
2017-11-26T20:11:29.800Z,2.90
2017-11-26T20:13:57.269Z,2.90
2017-11-26T20:16:24.691Z,2.90
2017-11-26T20:18:53.262Z,2.90
2017-11-26T20:21:20.680Z,2.90
2017-11-26T20:23:48.095Z,2.90
2017-11-26T20:26:16.669Z,2.90
2017-11-26T20:28:44.856Z,2.90
2017-11-26T20:31:12.546Z,2.80
2017-11-26T20:33:39.947Z,2.80
2017-11-26T20:36:07.761Z,2.80
2017-11-26T20:38:35.156Z,2.90
2017-11-26T20:41:02.579Z,2.90
2017-11-26T20:43:29.996Z,2.90
2017-11-26T20:45:58.180Z,2.90
2017-11-26T20:48:25.592Z,2.90
2017-11-26T20:50:53.020Z,2.90
2017-11-26T20:53:20.421Z,3.00
2017-11-26T20:55:47.847Z,3.00
2017-11-26T20:58:15.255Z,3.00
2017-11-26T21:00:43.471Z,3.00
2017-11-26T21:03:10.871Z,3.00
2017-11-26T21:05:39.082Z,3.00
2017-11-26T21:08:06.806Z,3.00
2017-11-26T21:10:34.225Z,3.00
2017-11-26T21:13:01.649Z,3.00
2017-11-26T21:15:29.061Z,3.00
2017-11-26T21:17:57.292Z,3.00
2017-11-26T21:20:24.709Z,3.00
2017-11-26T21:22:52.129Z,3.10
2017-11-26T21:25:20.085Z,3.10
2017-11-26T21:27:47.492Z,3.10
2017-11-26T21:30:14.909Z,3.10
2017-11-26T21:32:42.332Z,3.10
2017-11-26T21:35:09.746Z,3.10
2017-11-26T21:37:37.169Z,3.10
2017-11-26T21:40:04.577Z,3.20
2017-11-26T21:42:36.420Z,3.10
2017-11-26T21:45:04.081Z,3.10
2017-11-26T21:47:31.498Z,3.10
2017-11-26T21:49:58.909Z,3.10
2017-11-26T21:52:26.333Z,3.00
2017-11-26T21:54:53.749Z,3.00
2017-11-26T21:57:21.173Z,3.00
2017-11-26T21:59:48.591Z,3.00
2017-11-26T22:02:16.413Z,3.00
2017-11-26T22:04:45.802Z,2.90
2017-11-26T22:07:13.214Z,2.90
2017-11-26T22:09:40.625Z,2.90
2017-11-26T22:12:08.827Z,2.90
2017-11-26T22:14:36.277Z,2.90
2017-11-26T22:17:03.700Z,2.90
2017-11-26T22:19:31.116Z,2.90
2017-11-26T22:21:58.543Z,2.80
2017-11-26T22:24:25.948Z,2.80
2017-11-26T22:26:53.382Z,2.80
2017-11-26T22:29:22.715Z,2.80
2017-11-26T22:31:50.540Z,2.80
2017-11-26T22:34:17.963Z,2.80
2017-11-26T22:36:46.152Z,2.80
2017-11-26T22:39:13.578Z,2.80
2017-11-26T22:41:40.990Z,2.80
2017-11-26T22:44:08.413Z,2.80
2017-11-26T22:46:37.038Z,2.80
2017-11-26T22:49:04.454Z,2.70
2017-11-26T22:51:33.417Z,2.70
2017-11-26T22:54:00.842Z,2.70
2017-11-26T22:56:28.683Z,2.70
2017-11-26T22:58:56.091Z,2.70
2017-11-26T23:01:24.238Z,2.70
2017-11-26T23:03:51.695Z,2.80
2017-11-26T23:06:19.108Z,2.80
2017-11-26T23:08:47.296Z,2.80
2017-11-26T23:11:14.708Z,2.80
2017-11-26T23:13:42.671Z,2.90
2017-11-26T23:16:10.093Z,2.90
2017-11-26T23:18:37.519Z,2.90
2017-11-26T23:21:04.926Z,3.00
2017-11-26T23:23:33.812Z,3.00
2017-11-26T23:26:01.230Z,3.00
2017-11-26T23:28:29.415Z,3.00
2017-11-26T23:30:56.836Z,3.00
2017-11-26T23:33:24.712Z,3.00
2017-11-26T23:35:52.894Z,3.10
2017-11-26T23:38:20.313Z,3.10
2017-11-26T23:40:47.748Z,3.10
2017-11-26T23:43:15.560Z,3.10
2017-11-26T23:45:42.979Z,3.10
2017-11-26T23:48:10.694Z,3.10
2017-11-26T23:50:38.893Z,3.00
2017-11-26T23:53:06.295Z,3.00
2017-11-26T23:55:33.721Z,3.10
2017-11-26T23:58:01.844Z,3.10
